Time,TemperatureF,DewpointF,PressureIn,WindDirection,WindDirectionDegrees,WindSpeedMPH,WindSpeedGustMPH,Humidity,HourlyPrecipIn,Conditions,Clouds,dailyrainin,SoftwareType,DateUTC
2013-10-16 01:11:00,39.0,17.0,-100.00,South,188,0.0,7.0,41,0.00,,,-99.99,,2013-10-16 08:11:00,
2013-10-16 01:21:00,38.0,17.0,-100.00,NW,320,0.0,7.0,42,0.00,,,-99.99,,2013-10-16 08:21:00,
2013-10-16 01:32:00,38.0,17.0,-100.00,NW,320,0.0,7.0,42,0.00,,,-99.99,,2013-10-16 08:32:00,
2013-10-16 01:41:00,38.0,17.0,-100.00,NW,320,0.0,7.0,42,0.00,,,-99.99,,2013-10-16 08:41:00,
2013-10-16 02:11:00,37.0,17.0,-100.00,SSE,165,0.0,9.0,44,0.00,,,-99.99,,2013-10-16 09:11:00,
2013-10-16 02:22:00,37.0,17.0,-100.00,SSE,165,0.0,9.0,44,0.00,,,-99.99,,2013-10-16 09:22:00,
2013-10-16 02:43:00,37.0,17.0,-100.00,SW,234,0.0,1.0,44,0.00,,,-99.99,,2013-10-16 09:43:00,
2013-10-16 02:53:00,39.0,17.0,-100.00,South,171,0.0,8.0,41,0.00,,,-99.99,,2013-10-16 09:53:00,
2013-10-16 03:02:00,39.0,17.0,-100.00,South,171,0.0,8.0,41,0.00,,,-99.99,,2013-10-16 10:02:00,
2013-10-16 03:53:00,35.0,18.0,-100.00,SE,130,0.0,7.0,49,0.00,,,-99.99,,2013-10-16 10:53:00,
2013-10-16 04:03:00,35.0,18.0,-100.00,SE,130,0.0,7.0,49,0.00,,,-99.99,,2013-10-16 11:03:00,
2013-10-16 04:22:00,36.0,18.0,-100.00,West,277,0.0,8.0,47,0.00,,,-99.99,,2013-10-16 11:22:00,
2013-10-16 04:42:00,38.0,17.0,-100.00,South,174,1.0,12.0,43,0.00,,,-99.99,,2013-10-16 11:42:00,
2013-10-16 05:21:00,36.0,17.0,-100.00,NNW,336,0.0,8.0,46,0.00,,,-99.99,,2013-10-16 12:21:00,
2013-10-16 05:42:00,35.0,17.0,-100.00,SW,226,0.0,1.0,48,0.00,,,-99.99,,2013-10-16 12:42:00,
2013-10-16 05:52:00,35.0,17.0,-100.00,SW,226,0.0,1.0,48,0.00,,,-99.99,,2013-10-16 12:52:00,
2013-10-16 06:42:00,34.0,17.0,-100.00,North,350,0.0,8.0,49,0.00,,,-99.99,,2013-10-16 13:42:00,
2013-10-16 09:23:00,41.0,20.0,-100.00,ESE,112,1.0,4.0,43,0.00,,,-99.99,,2013-10-16 16:23:00,
2013-10-16 09:42:00,42.0,20.0,-100.00,ESE,116,1.0,9.0,41,0.00,,,-99.99,,2013-10-16 16:42:00,
2013-10-16 09:53:00,44.0,20.0,-100.00,East,99,1.0,10.0,38,0.00,,,-99.99,,2013-10-16 16:53:00,
2013-10-16 10:02:00,44.0,20.0,-100.00,East,99,1.0,10.0,38,0.00,,,-99.99,,2013-10-16 17:02:00,
2013-10-16 10:22:00,44.0,21.0,-100.00,ENE,72,1.0,11.0,39,0.00,,,-99.99,,2013-10-16 17:22:00,
2013-10-16 10:33:00,44.0,21.0,-100.00,ENE,72,1.0,11.0,39,0.00,,,-99.99,,2013-10-16 17:33:00,
2013-10-16 11:11:00,46.0,22.0,-100.00,ESE,107,2.0,9.0,38,0.00,,,-99.99,,2013-10-16 18:11:00,
2013-10-16 11:21:00,48.0,21.0,-100.00,ESE,103,3.0,7.0,34,0.00,,,-99.99,,2013-10-16 18:21:00,
2013-10-16 11:32:00,48.0,21.0,-100.00,ESE,103,3.0,7.0,34,0.00,,,-99.99,,2013-10-16 18:32:00,
2013-10-16 12:11:00,52.0,21.0,-100.00,ESE,116,3.0,10.0,29,0.00,,,-99.99,,2013-10-16 19:11:00,
2013-10-16 12:21:00,52.0,21.0,-100.00,ESE,116,3.0,10.0,29,0.00,,,-99.99,,2013-10-16 19:21:00,
2013-10-16 12:32:00,52.0,21.0,-100.00,ESE,116,3.0,10.0,29,0.00,,,-99.99,,2013-10-16 19:32:00,
2013-10-16 12:52:00,55.0,22.0,-100.00,East,92,2.0,8.0,27,0.00,,,-99.99,,2013-10-16 19:52:00,
2013-10-16 13:02:00,55.0,22.0,-100.00,East,92,2.0,8.0,27,0.00,,,-99.99,,2013-10-16 20:02:00,
2013-10-16 13:22:00,57.0,22.0,-100.00,East,85,3.0,7.0,26,0.00,,,-99.99,,2013-10-16 20:22:00,
2013-10-16 13:43:00,58.0,21.0,-100.00,East,95,2.0,11.0,24,0.00,,,-99.99,,2013-10-16 20:43:00,
2013-10-16 13:52:00,60.0,22.0,-100.00,East,97,3.0,7.0,23,0.00,,,-99.99,,2013-10-16 20:52:00,
2013-10-16 14:02:00,60.0,22.0,-100.00,East,97,3.0,7.0,23,0.00,,,-99.99,,2013-10-16 21:02:00,
2013-10-16 14:23:00,61.0,21.0,-100.00,ESE,104,3.0,7.0,21,0.00,,,-99.99,,2013-10-16 21:23:00,
2013-10-16 14:44:00,62.0,20.0,-100.00,ESE,106,3.0,9.0,20,0.00,,,-99.99,,2013-10-16 21:44:00,
2013-10-16 14:54:00,63.0,19.0,-100.00,ESE,123,3.0,9.0,18,0.00,,,-99.99,,2013-10-16 21:54:00,
2013-10-16 15:04:00,63.0,19.0,-100.00,ESE,123,3.0,9.0,18,0.00,,,-99.99,,2013-10-16 22:04:00,
2013-10-16 15:23:00,63.0,19.0,-100.00,East,99,3.0,8.0,18,0.00,,,-99.99,,2013-10-16 22:23:00,
2013-10-16 15:42:00,63.0,19.0,-100.00,ESE,121,3.0,10.0,18,0.00,,,-99.99,,2013-10-16 22:42:00,
2013-10-16 16:12:00,65.0,16.0,-100.00,East,97,3.0,7.0,15,0.00,,,-99.99,,2013-10-16 23:12:00,
2013-10-16 16:22:00,66.0,21.0,-100.00,West,272,5.0,15.0,18,0.00,,,-99.99,,2013-10-16 23:22:00,
2013-10-16 16:34:00,66.0,21.0,-100.00,West,272,5.0,15.0,18,0.00,,,-99.99,,2013-10-16 23:34:00,
2013-10-16 17:02:00,64.0,23.0,-100.00,WNW,291,4.0,11.0,21,0.00,,,-99.99,,2013-10-17 00:02:00,
2013-10-16 17:22:00,64.0,24.0,-100.00,West,280,3.0,9.0,22,0.00,,,-99.99,,2013-10-17 00:22:00,
2013-10-16 17:42:00,63.0,22.0,-100.00,WNW,282,5.0,14.0,21,0.00,,,-99.99,,2013-10-17 00:42:00,
2013-10-16 18:11:00,62.0,24.0,-100.00,WNW,288,6.0,15.0,23,0.00,,,-99.99,,2013-10-17 01:11:00,
2013-10-16 18:22:00,61.0,24.0,-100.00,WNW,282,6.0,14.0,24,0.00,,,-99.99,,2013-10-17 01:22:00,
2013-10-16 18:42:00,61.0,27.0,-100.00,WNW,294,7.0,18.0,27,0.00,,,-99.99,,2013-10-17 01:42:00,
2013-10-16 18:52:00,61.0,27.0,-100.00,WNW,294,7.0,18.0,27,0.00,,,-99.99,,2013-10-17 01:52:00,
2013-10-16 19:12:00,60.0,28.0,-100.00,West,281,9.0,16.0,30,0.00,,,-99.99,,2013-10-17 02:12:00,
2013-10-16 19:21:00,60.0,28.0,-100.00,West,281,9.0,16.0,30,0.00,,,-99.99,,2013-10-17 02:21:00,
2013-10-16 19:31:00,60.0,28.0,-100.00,West,281,9.0,16.0,30,0.00,,,-99.99,,2013-10-17 02:31:00,
2013-10-16 20:12:00,59.0,28.0,-100.00,West,281,9.0,20.0,31,0.00,,,-99.99,,2013-10-17 03:12:00,
2013-10-16 20:22:00,59.0,28.0,-100.00,West,281,9.0,20.0,31,0.00,,,-99.99,,2013-10-17 03:22:00,
2013-10-16 20:44:00,59.0,26.0,-100.00,WNW,291,5.0,12.0,28,0.00,,,-99.99,,2013-10-17 03:44:00,
2013-10-16 20:54:00,58.0,24.0,-100.00,SSW,205,3.0,8.0,27,0.00,,,-99.99,,2013-10-17 03:54:00,
2013-10-16 21:14:00,57.0,23.0,-100.00,SW,229,4.0,13.0,27,0.00,,,-99.99,,2013-10-17 04:14:00,
2013-10-16 21:43:00,57.0,24.0,-100.00,WNW,282,4.0,10.0,28,0.00,,,-99.99,,2013-10-17 04:43:00,
2013-10-16 21:54:00,56.0,26.0,-100.00,West,275,6.0,13.0,31,0.00,,,-99.99,,2013-10-17 04:54:00,
2013-10-16 22:04:00,56.0,26.0,-100.00,West,275,6.0,13.0,31,0.00,,,-99.99,,2013-10-17 05:04:00,
2013-10-16 22:13:00,56.0,26.0,-100.00,West,275,6.0,13.0,31,0.00,,,-99.99,,2013-10-17 05:13:00,
2013-10-16 22:23:00,55.0,25.0,-100.00,South,189,2.0,5.0,31,0.00,,,-99.99,,2013-10-17 05:23:00,
2013-10-16 22:42:00,55.0,27.0,-100.00,WNW,302,3.0,12.0,34,0.00,,,-99.99,,2013-10-17 05:42:00,
2013-10-16 22:52:00,54.0,26.0,-100.00,WSW,253,1.0,5.0,33,0.00,,,-99.99,,2013-10-17 05:52:00,
2013-10-16 23:02:00,54.0,26.0,-100.00,WSW,253,1.0,5.0,33,0.00,,,-99.99,,2013-10-17 06:02:00,
2013-10-16 23:22:00,54.0,27.0,-100.00,WNW,285,4.0,9.0,35,0.00,,,-99.99,,2013-10-17 06:22:00,
2013-10-16 23:42:00,52.0,25.0,-100.00,WSW,244,3.0,13.0,34,0.00,,,-99.99,,2013-10-17 06:42:00,